sensor_id;sensor_type;location;lat;lon;timestamp;temperature;humidity
10121;DHT22;5100;45.176;5.714;2022-11-15T00:01:48;15.80;75.50
10121;DHT22;5100;45.176;5.714;2022-11-15T00:04:33;15.80;75.50
10121;DHT22;5100;45.176;5.714;2022-11-15T00:07:18;15.80;75.30
10121;DHT22;5100;45.176;5.714;2022-11-15T00:10:03;15.80;75.20
10121;DHT22;5100;45.176;5.714;2022-11-15T00:12:47;15.80;75.50
10121;DHT22;5100;45.176;5.714;2022-11-15T00:15:34;15.80;75.40
10121;DHT22;5100;45.176;5.714;2022-11-15T00:18:19;15.80;75.60
10121;DHT22;5100;45.176;5.714;2022-11-15T00:21:06;15.80;75.60
10121;DHT22;5100;45.176;5.714;2022-11-15T00:23:51;15.80;75.80
10121;DHT22;5100;45.176;5.714;2022-11-15T00:26:35;15.80;75.80
10121;DHT22;5100;45.176;5.714;2022-11-15T00:29:20;15.70;76.20
10121;DHT22;5100;45.176;5.714;2022-11-15T00:32:05;15.70;76.20
10121;DHT22;5100;45.176;5.714;2022-11-15T00:34:49;15.70;76.20
10121;DHT22;5100;45.176;5.714;2022-11-15T00:37:34;15.70;76.10
10121;DHT22;5100;45.176;5.714;2022-11-15T00:40:18;15.70;76.10
10121;DHT22;5100;45.176;5.714;2022-11-15T00:43:02;15.70;75.90
10121;DHT22;5100;45.176;5.714;2022-11-15T00:45:47;15.70;76.10
10121;DHT22;5100;45.176;5.714;2022-11-15T00:48:31;15.70;76.30
10121;DHT22;5100;45.176;5.714;2022-11-15T00:51:15;15.70;76.40
10121;DHT22;5100;45.176;5.714;2022-11-15T00:54:00;15.60;76.50
10121;DHT22;5100;45.176;5.714;2022-11-15T00:56:45;15.60;76.50
10121;DHT22;5100;45.176;5.714;2022-11-15T00:59:29;15.60;76.60
10121;DHT22;5100;45.176;5.714;2022-11-15T01:02:14;15.60;76.80
10121;DHT22;5100;45.176;5.714;2022-11-15T01:04:58;15.60;76.90
10121;DHT22;5100;45.176;5.714;2022-11-15T01:07:43;15.60;77.40
10121;DHT22;5100;45.176;5.714;2022-11-15T01:10:27;15.60;77.60
10121;DHT22;5100;45.176;5.714;2022-11-15T01:13:12;15.50;77.60
10121;DHT22;5100;45.176;5.714;2022-11-15T01:15:56;15.50;77.70
10121;DHT22;5100;45.176;5.714;2022-11-15T01:18:41;15.50;78.00
10121;DHT22;5100;45.176;5.714;2022-11-15T01:21:25;15.50;78.40
10121;DHT22;5100;45.176;5.714;2022-11-15T01:24:13;15.50;78.10
10121;DHT22;5100;45.176;5.714;2022-11-15T01:26:58;15.50;77.80
10121;DHT22;5100;45.176;5.714;2022-11-15T01:29:42;15.50;77.70
10121;DHT22;5100;45.176;5.714;2022-11-15T01:32:26;15.50;77.70
10121;DHT22;5100;45.176;5.714;2022-11-15T01:35:11;15.50;77.70
10121;DHT22;5100;45.176;5.714;2022-11-15T01:37:55;15.50;77.60
10121;DHT22;5100;45.176;5.714;2022-11-15T01:40:40;15.50;77.70
10121;DHT22;5100;45.176;5.714;2022-11-15T01:43:33;15.50;77.70
10121;DHT22;5100;45.176;5.714;2022-11-15T01:46:30;15.40;77.70
10121;DHT22;5100;45.176;5.714;2022-11-15T01:49:18;15.40;77.80
10121;DHT22;5100;45.176;5.714;2022-11-15T01:52:06;15.40;77.90
10121;DHT22;5100;45.176;5.714;2022-11-15T01:55:15;15.40;77.90
10121;DHT22;5100;45.176;5.714;2022-11-15T01:58:01;15.40;77.90
10121;DHT22;5100;45.176;5.714;2022-11-15T02:00:46;15.40;77.90
10121;DHT22;5100;45.176;5.714;2022-11-15T02:03:37;15.40;77.90
10121;DHT22;5100;45.176;5.714;2022-11-15T02:06:23;15.40;77.90
10121;DHT22;5100;45.176;5.714;2022-11-15T02:09:08;15.40;78.10
10121;DHT22;5100;45.176;5.714;2022-11-15T02:11:54;15.40;78.10
10121;DHT22;5100;45.176;5.714;2022-11-15T02:14:42;15.30;78.10
10121;DHT22;5100;45.176;5.714;2022-11-15T02:21:03;15.30;78.20
10121;DHT22;5100;45.176;5.714;2022-11-15T02:24:06;15.30;78.20
10121;DHT22;5100;45.176;5.714;2022-11-15T02:27:22;15.30;78.20
10121;DHT22;5100;45.176;5.714;2022-11-15T02:30:27;15.30;78.20
10121;DHT22;5100;45.176;5.714;2022-11-15T02:36:14;15.30;78.30
10121;DHT22;5100;45.176;5.714;2022-11-15T02:41:55;15.30;78.50
10121;DHT22;5100;45.176;5.714;2022-11-15T02:44:45;15.20;78.40
10121;DHT22;5100;45.176;5.714;2022-11-15T02:47:32;15.30;78.50
10121;DHT22;5100;45.176;5.714;2022-11-15T02:50:21;15.30;78.50
10121;DHT22;5100;45.176;5.714;2022-11-15T02:53:08;15.30;78.30
10121;DHT22;5100;45.176;5.714;2022-11-15T02:55:53;15.30;78.30
10121;DHT22;5100;45.176;5.714;2022-11-15T02:59:13;15.30;78.40
10121;DHT22;5100;45.176;5.714;2022-11-15T03:05:01;15.30;78.60
10121;DHT22;5100;45.176;5.714;2022-11-15T03:08:44;15.30;78.70
10121;DHT22;5100;45.176;5.714;2022-11-15T03:11:14;15.30;78.80
10121;DHT22;5100;45.176;5.714;2022-11-15T03:14:39;15.30;78.80
10121;DHT22;5100;45.176;5.714;2022-11-15T03:17:30;15.30;78.90
10121;DHT22;5100;45.176;5.714;2022-11-15T03:20:17;15.30;78.90
10121;DHT22;5100;45.176;5.714;2022-11-15T03:23:08;15.30;78.90
10121;DHT22;5100;45.176;5.714;2022-11-15T03:25:55;15.30;79.30
10121;DHT22;5100;45.176;5.714;2022-11-15T03:28:47;15.30;79.30
10121;DHT22;5100;45.176;5.714;2022-11-15T03:31:37;15.20;79.10
10121;DHT22;5100;45.176;5.714;2022-11-15T03:35:37;15.30;79.10
10121;DHT22;5100;45.176;5.714;2022-11-15T03:40:59;15.30;79.30
10121;DHT22;5100;45.176;5.714;2022-11-15T03:47:34;15.30;79.50
10121;DHT22;5100;45.176;5.714;2022-11-15T03:50:21;15.30;79.70
10121;DHT22;5100;45.176;5.714;2022-11-15T03:53:06;15.20;79.70
10121;DHT22;5100;45.176;5.714;2022-11-15T03:55:51;15.20;79.60
10121;DHT22;5100;45.176;5.714;2022-11-15T03:58:35;15.20;79.50
10121;DHT22;5100;45.176;5.714;2022-11-15T04:01:20;15.20;79.70
10121;DHT22;5100;45.176;5.714;2022-11-15T04:04:04;15.20;79.90
10121;DHT22;5100;45.176;5.714;2022-11-15T04:06:48;15.20;80.00
10121;DHT22;5100;45.176;5.714;2022-11-15T04:09:33;15.20;80.00
10121;DHT22;5100;45.176;5.714;2022-11-15T04:12:17;15.20;80.00
10121;DHT22;5100;45.176;5.714;2022-11-15T04:15:19;15.20;79.80
10121;DHT22;5100;45.176;5.714;2022-11-15T04:18:03;15.20;79.80
10121;DHT22;5100;45.176;5.714;2022-11-15T04:20:48;15.20;79.80
10121;DHT22;5100;45.176;5.714;2022-11-15T04:23:51;15.20;79.60
10121;DHT22;5100;45.176;5.714;2022-11-15T04:26:39;15.20;79.40
10121;DHT22;5100;45.176;5.714;2022-11-15T04:29:23;15.20;79.10
10121;DHT22;5100;45.176;5.714;2022-11-15T04:32:20;15.20;79.30
10121;DHT22;5100;45.176;5.714;2022-11-15T04:35:05;15.20;79.50
10121;DHT22;5100;45.176;5.714;2022-11-15T04:37:49;15.20;79.30
10121;DHT22;5100;45.176;5.714;2022-11-15T04:40:34;15.20;79.10
10121;DHT22;5100;45.176;5.714;2022-11-15T04:43:19;15.20;79.00
10121;DHT22;5100;45.176;5.714;2022-11-15T04:46:03;15.20;78.90
10121;DHT22;5100;45.176;5.714;2022-11-15T04:48:48;15.20;78.80
10121;DHT22;5100;45.176;5.714;2022-11-15T04:51:32;15.20;78.80
10121;DHT22;5100;45.176;5.714;2022-11-15T04:54:17;15.20;79.10
10121;DHT22;5100;45.176;5.714;2022-11-15T04:57:01;15.20;79.20
10121;DHT22;5100;45.176;5.714;2022-11-15T04:59:46;15.10;79.20
10121;DHT22;5100;45.176;5.714;2022-11-15T05:02:30;15.10;79.20
10121;DHT22;5100;45.176;5.714;2022-11-15T05:05:35;15.20;79.20
10121;DHT22;5100;45.176;5.714;2022-11-15T05:08:19;15.10;79.20
10121;DHT22;5100;45.176;5.714;2022-11-15T05:11:04;15.10;79.30
10121;DHT22;5100;45.176;5.714;2022-11-15T05:13:49;15.10;79.30
10121;DHT22;5100;45.176;5.714;2022-11-15T05:16:33;15.20;79.50
10121;DHT22;5100;45.176;5.714;2022-11-15T05:19:17;15.10;79.60
10121;DHT22;5100;45.176;5.714;2022-11-15T05:22:02;15.20;79.90
10121;DHT22;5100;45.176;5.714;2022-11-15T05:24:46;15.10;80.10
10121;DHT22;5100;45.176;5.714;2022-11-15T05:27:32;15.10;80.20
10121;DHT22;5100;45.176;5.714;2022-11-15T05:30:16;15.10;80.00
10121;DHT22;5100;45.176;5.714;2022-11-15T05:33:01;15.10;79.80
10121;DHT22;5100;45.176;5.714;2022-11-15T05:35:50;15.10;79.60
10121;DHT22;5100;45.176;5.714;2022-11-15T05:38:38;15.10;79.40
10121;DHT22;5100;45.176;5.714;2022-11-15T05:41:32;15.10;79.30
10121;DHT22;5100;45.176;5.714;2022-11-15T05:44:21;15.10;78.80
10121;DHT22;5100;45.176;5.714;2022-11-15T05:47:07;15.10;78.70
10121;DHT22;5100;45.176;5.714;2022-11-15T05:49:53;15.10;78.90
10121;DHT22;5100;45.176;5.714;2022-11-15T05:52:38;15.10;78.70
10121;DHT22;5100;45.176;5.714;2022-11-15T05:55:22;15.10;78.40
10121;DHT22;5100;45.176;5.714;2022-11-15T05:58:07;15.10;78.20
10121;DHT22;5100;45.176;5.714;2022-11-15T06:00:52;15.10;78.10
10121;DHT22;5100;45.176;5.714;2022-11-15T06:03:36;15.10;78.20
10121;DHT22;5100;45.176;5.714;2022-11-15T06:06:21;15.10;78.40
10121;DHT22;5100;45.176;5.714;2022-11-15T06:09:05;15.10;78.40
10121;DHT22;5100;45.176;5.714;2022-11-15T06:11:49;15.10;78.20
10121;DHT22;5100;45.176;5.714;2022-11-15T06:14:34;15.10;78.20
10121;DHT22;5100;45.176;5.714;2022-11-15T06:17:18;15.10;78.40
10121;DHT22;5100;45.176;5.714;2022-11-15T06:20:03;15.10;78.60
10121;DHT22;5100;45.176;5.714;2022-11-15T06:22:48;15.10;78.40
10121;DHT22;5100;45.176;5.714;2022-11-15T06:25:32;15.00;78.40
10121;DHT22;5100;45.176;5.714;2022-11-15T06:28:17;15.00;78.60
10121;DHT22;5100;45.176;5.714;2022-11-15T06:31:09;15.00;78.40
10121;DHT22;5100;45.176;5.714;2022-11-15T06:33:57;15.00;78.40
10121;DHT22;5100;45.176;5.714;2022-11-15T06:36:42;15.00;78.40
10121;DHT22;5100;45.176;5.714;2022-11-15T06:39:26;15.00;78.60
10121;DHT22;5100;45.176;5.714;2022-11-15T06:42:11;15.00;78.70
10121;DHT22;5100;45.176;5.714;2022-11-15T06:44:55;15.00;78.90
10121;DHT22;5100;45.176;5.714;2022-11-15T06:47:46;15.00;78.80
10121;DHT22;5100;45.176;5.714;2022-11-15T06:50:31;15.00;78.80
10121;DHT22;5100;45.176;5.714;2022-11-15T06:53:15;15.00;78.70
10121;DHT22;5100;45.176;5.714;2022-11-15T06:56:01;15.00;78.80
10121;DHT22;5100;45.176;5.714;2022-11-15T06:58:45;15.00;78.70
10121;DHT22;5100;45.176;5.714;2022-11-15T07:01:30;15.00;78.60
10121;DHT22;5100;45.176;5.714;2022-11-15T07:04:14;15.00;78.70
10121;DHT22;5100;45.176;5.714;2022-11-15T07:07:00;15.00;78.80
10121;DHT22;5100;45.176;5.714;2022-11-15T07:09:44;15.00;78.80
10121;DHT22;5100;45.176;5.714;2022-11-15T07:12:28;15.00;78.90
10121;DHT22;5100;45.176;5.714;2022-11-15T07:15:13;15.00;78.90
10121;DHT22;5100;45.176;5.714;2022-11-15T07:18:01;15.00;78.80
10121;DHT22;5100;45.176;5.714;2022-11-15T07:20:45;15.00;78.80
10121;DHT22;5100;45.176;5.714;2022-11-15T07:23:30;15.00;78.60
10121;DHT22;5100;45.176;5.714;2022-11-15T07:26:14;15.00;78.60
10121;DHT22;5100;45.176;5.714;2022-11-15T07:28:59;15.00;78.70
10121;DHT22;5100;45.176;5.714;2022-11-15T07:31:43;15.10;78.40
10121;DHT22;5100;45.176;5.714;2022-11-15T07:34:28;15.10;78.10
10121;DHT22;5100;45.176;5.714;2022-11-15T07:37:12;15.20;78.00
10121;DHT22;5100;45.176;5.714;2022-11-15T07:39:56;15.20;78.00
10121;DHT22;5100;45.176;5.714;2022-11-15T07:42:41;15.20;77.90
10121;DHT22;5100;45.176;5.714;2022-11-15T07:45:44;15.20;77.90
10121;DHT22;5100;45.176;5.714;2022-11-15T07:48:29;15.20;78.00
10121;DHT22;5100;45.176;5.714;2022-11-15T07:51:14;15.20;78.00
10121;DHT22;5100;45.176;5.714;2022-11-15T07:53:59;15.20;77.90
10121;DHT22;5100;45.176;5.714;2022-11-15T07:56:43;15.20;77.90
10121;DHT22;5100;45.176;5.714;2022-11-15T07:59:28;15.30;77.80
10121;DHT22;5100;45.176;5.714;2022-11-15T08:02:12;15.30;77.80
10121;DHT22;5100;45.176;5.714;2022-11-15T08:04:57;15.30;77.80
10121;DHT22;5100;45.176;5.714;2022-11-15T08:07:42;15.30;77.80
10121;DHT22;5100;45.176;5.714;2022-11-15T08:10:27;15.30;78.00
10121;DHT22;5100;45.176;5.714;2022-11-15T08:13:13;15.30;78.40
10121;DHT22;5100;45.176;5.714;2022-11-15T08:16:01;15.30;78.60
10121;DHT22;5100;45.176;5.714;2022-11-15T08:18:47;15.40;78.90
10121;DHT22;5100;45.176;5.714;2022-11-15T08:21:31;15.40;79.10
10121;DHT22;5100;45.176;5.714;2022-11-15T08:24:16;15.40;79.20
10121;DHT22;5100;45.176;5.714;2022-11-15T08:27:00;15.40;79.30
10121;DHT22;5100;45.176;5.714;2022-11-15T08:29:45;15.50;79.30
10121;DHT22;5100;45.176;5.714;2022-11-15T08:32:30;15.50;79.20
10121;DHT22;5100;45.176;5.714;2022-11-15T08:35:15;15.50;78.60
10121;DHT22;5100;45.176;5.714;2022-11-15T08:37:59;15.50;78.20
10121;DHT22;5100;45.176;5.714;2022-11-15T08:40:44;15.60;77.90
10121;DHT22;5100;45.176;5.714;2022-11-15T08:43:29;15.60;77.80
10121;DHT22;5100;45.176;5.714;2022-11-15T08:46:13;15.60;77.50
10121;DHT22;5100;45.176;5.714;2022-11-15T08:48:58;15.60;77.50
10121;DHT22;5100;45.176;5.714;2022-11-15T08:51:42;15.60;77.60
10121;DHT22;5100;45.176;5.714;2022-11-15T08:54:27;15.70;77.70
10121;DHT22;5100;45.176;5.714;2022-11-15T08:57:11;15.70;77.70
10121;DHT22;5100;45.176;5.714;2022-11-15T08:59:56;15.70;77.60
10121;DHT22;5100;45.176;5.714;2022-11-15T09:02:41;15.70;77.60
10121;DHT22;5100;45.176;5.714;2022-11-15T09:05:26;15.70;77.40
10121;DHT22;5100;45.176;5.714;2022-11-15T09:08:10;15.80;77.30
10121;DHT22;5100;45.176;5.714;2022-11-15T09:10:56;15.80;77.00
10121;DHT22;5100;45.176;5.714;2022-11-15T09:13:41;15.80;76.70
10121;DHT22;5100;45.176;5.714;2022-11-15T09:16:25;15.80;76.70
10121;DHT22;5100;45.176;5.714;2022-11-15T09:19:10;15.90;76.70
10121;DHT22;5100;45.176;5.714;2022-11-15T09:21:54;15.90;76.50
10121;DHT22;5100;45.176;5.714;2022-11-15T09:24:39;15.90;76.50
10121;DHT22;5100;45.176;5.714;2022-11-15T09:27:28;15.90;76.30
10121;DHT22;5100;45.176;5.714;2022-11-15T09:30:12;15.90;76.50
10121;DHT22;5100;45.176;5.714;2022-11-15T09:32:57;16.00;76.70
10121;DHT22;5100;45.176;5.714;2022-11-15T09:35:41;16.00;76.30
10121;DHT22;5100;45.176;5.714;2022-11-15T09:38:26;16.00;76.40
10121;DHT22;5100;45.176;5.714;2022-11-15T09:50:15;16.10;76.20
10121;DHT22;5100;45.176;5.714;2022-11-15T09:52:44;16.10;76.00
10121;DHT22;5100;45.176;5.714;2022-11-15T09:55:13;16.10;75.90
10121;DHT22;5100;45.176;5.714;2022-11-15T09:57:53;16.20;75.90
10121;DHT22;5100;45.176;5.714;2022-11-15T10:00:25;16.20;76.10
10121;DHT22;5100;45.176;5.714;2022-11-15T10:03:15;16.20;76.20
10121;DHT22;5100;45.176;5.714;2022-11-15T10:05:43;16.20;76.00
10121;DHT22;5100;45.176;5.714;2022-11-15T10:10:40;16.30;76.00
10121;DHT22;5100;45.176;5.714;2022-11-15T10:13:19;16.30;75.90
10121;DHT22;5100;45.176;5.714;2022-11-15T10:15:49;16.40;75.90
10121;DHT22;5100;45.176;5.714;2022-11-15T10:21:22;16.40;75.60
10121;DHT22;5100;45.176;5.714;2022-11-15T10:23:50;16.40;75.70
10121;DHT22;5100;45.176;5.714;2022-11-15T10:26:17;16.40;75.60
10121;DHT22;5100;45.176;5.714;2022-11-15T10:28:43;16.40;75.70
10121;DHT22;5100;45.176;5.714;2022-11-15T10:31:26;16.40;75.90
10121;DHT22;5100;45.176;5.714;2022-11-15T10:34:12;16.50;76.10
10121;DHT22;5100;45.176;5.714;2022-11-15T10:37:04;16.50;75.80
10121;DHT22;5100;45.176;5.714;2022-11-15T10:39:30;16.50;75.60
10121;DHT22;5100;45.176;5.714;2022-11-15T10:41:56;16.50;75.50
10121;DHT22;5100;45.176;5.714;2022-11-15T10:44:30;16.50;75.60
10121;DHT22;5100;45.176;5.714;2022-11-15T10:49:24;16.50;75.00
10121;DHT22;5100;45.176;5.714;2022-11-15T10:51:58;16.50;75.20
10121;DHT22;5100;45.176;5.714;2022-11-15T10:54:37;16.50;75.20
10121;DHT22;5100;45.176;5.714;2022-11-15T10:57:29;16.50;75.20
10121;DHT22;5100;45.176;5.714;2022-11-15T10:59:57;16.50;75.10
10121;DHT22;5100;45.176;5.714;2022-11-15T11:02:36;16.50;75.20
10121;DHT22;5100;45.176;5.714;2022-11-15T11:08:00;16.50;75.00
10121;DHT22;5100;45.176;5.714;2022-11-15T11:10:28;16.50;75.10
10121;DHT22;5100;45.176;5.714;2022-11-15T11:12:55;16.50;75.10
10121;DHT22;5100;45.176;5.714;2022-11-15T11:15:22;16.50;74.90
10121;DHT22;5100;45.176;5.714;2022-11-15T11:20:40;16.50;75.20
10121;DHT22;5100;45.176;5.714;2022-11-15T11:23:33;16.50;75.00
10121;DHT22;5100;45.176;5.714;2022-11-15T11:26:29;16.50;75.20
10121;DHT22;5100;45.176;5.714;2022-11-15T11:29:13;16.50;75.00
10121;DHT22;5100;45.176;5.714;2022-11-15T11:31:47;16.50;75.20
10121;DHT22;5100;45.176;5.714;2022-11-15T11:34:34;16.50;75.20
10121;DHT22;5100;45.176;5.714;2022-11-15T11:47:40;16.60;74.30
10121;DHT22;5100;45.176;5.714;2022-11-15T11:50:19;16.60;74.50
10121;DHT22;5100;45.176;5.714;2022-11-15T11:52:54;16.60;74.80
10121;DHT22;5100;45.176;5.714;2022-11-15T11:55:31;16.60;74.80
10121;DHT22;5100;45.176;5.714;2022-11-15T11:58:21;16.60;74.80
10121;DHT22;5100;45.176;5.714;2022-11-15T12:00:54;16.70;74.20
10121;DHT22;5100;45.176;5.714;2022-11-15T12:03:34;16.70;74.00
10121;DHT22;5100;45.176;5.714;2022-11-15T12:14:31;16.70;73.70
10121;DHT22;5100;45.176;5.714;2022-11-15T12:16:58;16.70;73.30
10121;DHT22;5100;45.176;5.714;2022-11-15T12:19:25;16.70;73.50
10121;DHT22;5100;45.176;5.714;2022-11-15T12:22:18;16.80;73.40
10121;DHT22;5100;45.176;5.714;2022-11-15T12:25:19;16.80;73.50
10121;DHT22;5100;45.176;5.714;2022-11-15T12:28:11;16.80;73.50
10121;DHT22;5100;45.176;5.714;2022-11-15T12:30:50;16.80;73.60
10121;DHT22;5100;45.176;5.714;2022-11-15T12:33:40;16.80;73.40
10121;DHT22;5100;45.176;5.714;2022-11-15T12:36:37;16.90;73.70
10121;DHT22;5100;45.176;5.714;2022-11-15T12:39:07;16.90;73.90
10121;DHT22;5100;45.176;5.714;2022-11-15T12:41:36;16.90;74.10
10121;DHT22;5100;45.176;5.714;2022-11-15T12:44:04;16.90;74.50
10121;DHT22;5100;45.176;5.714;2022-11-15T12:49:00;16.90;74.60
10121;DHT22;5100;45.176;5.714;2022-11-15T12:59:55;16.90;74.40
10121;DHT22;5100;45.176;5.714;2022-11-15T13:02:35;16.90;74.60
10121;DHT22;5100;45.176;5.714;2022-11-15T13:12:59;16.90;75.10
10121;DHT22;5100;45.176;5.714;2022-11-15T13:17:56;16.90;75.80
10121;DHT22;5100;45.176;5.714;2022-11-15T13:23:09;16.90;76.10
10121;DHT22;5100;45.176;5.714;2022-11-15T13:30:59;17.00;76.40
10121;DHT22;5100;45.176;5.714;2022-11-15T13:33:36;17.00;76.20
10121;DHT22;5100;45.176;5.714;2022-11-15T13:36:18;17.00;76.30
10121;DHT22;5100;45.176;5.714;2022-11-15T13:38:57;17.00;76.20
10121;DHT22;5100;45.176;5.714;2022-11-15T13:41:28;17.00;76.30
10121;DHT22;5100;45.176;5.714;2022-11-15T13:43:55;17.00;76.30
10121;DHT22;5100;45.176;5.714;2022-11-15T13:46:26;17.00;76.50
10121;DHT22;5100;45.176;5.714;2022-11-15T13:57:02;17.00;76.00
10121;DHT22;5100;45.176;5.714;2022-11-15T13:59:34;17.00;76.10
10121;DHT22;5100;45.176;5.714;2022-11-15T14:02:11;17.00;76.00
10121;DHT22;5100;45.176;5.714;2022-11-15T14:05:25;17.00;76.10
10121;DHT22;5100;45.176;5.714;2022-11-15T14:07:32;17.00;76.20
10121;DHT22;5100;45.176;5.714;2022-11-15T14:10:25;17.00;76.20
10121;DHT22;5100;45.176;5.714;2022-11-15T14:12:51;17.00;76.10
10121;DHT22;5100;45.176;5.714;2022-11-15T14:15:28;17.00;76.20
10121;DHT22;5100;45.176;5.714;2022-11-15T14:17:55;17.00;76.50
10121;DHT22;5100;45.176;5.714;2022-11-15T14:20:38;17.00;76.60
10121;DHT22;5100;45.176;5.714;2022-11-15T14:23:19;17.00;76.50
10121;DHT22;5100;45.176;5.714;2022-11-15T14:25:54;17.00;76.60
10121;DHT22;5100;45.176;5.714;2022-11-15T14:30:54;17.00;76.50
10121;DHT22;5100;45.176;5.714;2022-11-15T14:33:38;17.00;76.40
10121;DHT22;5100;45.176;5.714;2022-11-15T14:38:38;17.00;76.40
10121;DHT22;5100;45.176;5.714;2022-11-15T14:41:04;17.00;76.20
10121;DHT22;5100;45.176;5.714;2022-11-15T14:43:31;17.00;76.20
10121;DHT22;5100;45.176;5.714;2022-11-15T14:45:57;17.00;76.20
10121;DHT22;5100;45.176;5.714;2022-11-15T14:48:23;17.00;75.90
10121;DHT22;5100;45.176;5.714;2022-11-15T14:50:49;16.90;75.90
10121;DHT22;5100;45.176;5.714;2022-11-15T14:53:16;16.90;75.90
10121;DHT22;5100;45.176;5.714;2022-11-15T14:55:43;16.90;76.00
10121;DHT22;5100;45.176;5.714;2022-11-15T14:58:10;16.90;76.20
10121;DHT22;5100;45.176;5.714;2022-11-15T15:00:39;16.90;76.30
10121;DHT22;5100;45.176;5.714;2022-11-15T15:03:05;16.90;76.20
10121;DHT22;5100;45.176;5.714;2022-11-15T15:05:34;16.90;76.20
10121;DHT22;5100;45.176;5.714;2022-11-15T15:08:12;16.90;76.30
10121;DHT22;5100;45.176;5.714;2022-11-15T15:10:44;16.90;76.30
10121;DHT22;5100;45.176;5.714;2022-11-15T15:13:23;16.90;76.50
10121;DHT22;5100;45.176;5.714;2022-11-15T15:15:51;16.90;76.60
10121;DHT22;5100;45.176;5.714;2022-11-15T15:18:18;16.90;77.00
10121;DHT22;5100;45.176;5.714;2022-11-15T15:20:45;16.80;77.10
10121;DHT22;5100;45.176;5.714;2022-11-15T15:23:19;16.80;77.30
10121;DHT22;5100;45.176;5.714;2022-11-15T15:25:46;16.80;77.40
10121;DHT22;5100;45.176;5.714;2022-11-15T15:28:15;16.80;77.40
10121;DHT22;5100;45.176;5.714;2022-11-15T15:30:41;16.80;76.80
10121;DHT22;5100;45.176;5.714;2022-11-15T15:33:07;16.80;76.60
10121;DHT22;5100;45.176;5.714;2022-11-15T15:35:34;16.80;76.20
10121;DHT22;5100;45.176;5.714;2022-11-15T15:38:00;16.80;75.70
10121;DHT22;5100;45.176;5.714;2022-11-15T15:40:29;16.80;75.50
10121;DHT22;5100;45.176;5.714;2022-11-15T15:42:55;16.80;75.60
10121;DHT22;5100;45.176;5.714;2022-11-15T15:45:21;16.70;75.80
10121;DHT22;5100;45.176;5.714;2022-11-15T15:47:47;16.70;75.80
10121;DHT22;5100;45.176;5.714;2022-11-15T15:50:26;16.80;75.90
10121;DHT22;5100;45.176;5.714;2022-11-15T15:52:54;16.90;75.70
10121;DHT22;5100;45.176;5.714;2022-11-15T15:55:21;17.00;75.30
10121;DHT22;5100;45.176;5.714;2022-11-15T15:57:48;17.10;75.00
10121;DHT22;5100;45.176;5.714;2022-11-15T16:00:14;17.10;74.80
10121;DHT22;5100;45.176;5.714;2022-11-15T16:02:41;17.10;74.80
10121;DHT22;5100;45.176;5.714;2022-11-15T16:05:08;17.10;74.80
10121;DHT22;5100;45.176;5.714;2022-11-15T16:07:35;17.00;74.70
10121;DHT22;5100;45.176;5.714;2022-11-15T16:10:13;17.00;74.60
10121;DHT22;5100;45.176;5.714;2022-11-15T16:12:42;17.00;74.90
10121;DHT22;5100;45.176;5.714;2022-11-15T16:15:08;17.00;75.00
10121;DHT22;5100;45.176;5.714;2022-11-15T16:17:38;16.90;74.90
10121;DHT22;5100;45.176;5.714;2022-11-15T16:20:05;16.90;74.70
10121;DHT22;5100;45.176;5.714;2022-11-15T16:22:32;16.90;74.30
10121;DHT22;5100;45.176;5.714;2022-11-15T16:24:58;16.80;74.00
10121;DHT22;5100;45.176;5.714;2022-11-15T16:27:24;16.80;74.20
10121;DHT22;5100;45.176;5.714;2022-11-15T16:29:50;16.80;74.30
10121;DHT22;5100;45.176;5.714;2022-11-15T16:32:16;16.80;74.00
10121;DHT22;5100;45.176;5.714;2022-11-15T16:34:42;16.80;74.00
10121;DHT22;5100;45.176;5.714;2022-11-15T16:37:21;16.80;74.20
10121;DHT22;5100;45.176;5.714;2022-11-15T16:39:48;16.80;74.10
10121;DHT22;5100;45.176;5.714;2022-11-15T16:42:15;16.70;74.10
10121;DHT22;5100;45.176;5.714;2022-11-15T16:44:40;16.80;74.30
10121;DHT22;5100;45.176;5.714;2022-11-15T16:47:18;16.70;74.40
10121;DHT22;5100;45.176;5.714;2022-11-15T16:49:48;16.70;74.30
10121;DHT22;5100;45.176;5.714;2022-11-15T16:52:13;16.70;74.30
10121;DHT22;5100;45.176;5.714;2022-11-15T16:54:39;16.70;74.50
10121;DHT22;5100;45.176;5.714;2022-11-15T16:57:08;16.70;74.80
10121;DHT22;5100;45.176;5.714;2022-11-15T16:59:34;16.70;75.00
10121;DHT22;5100;45.176;5.714;2022-11-15T17:02:00;16.70;74.80
10121;DHT22;5100;45.176;5.714;2022-11-15T17:04:26;16.70;74.80
10121;DHT22;5100;45.176;5.714;2022-11-15T17:06:57;16.70;75.00
10121;DHT22;5100;45.176;5.714;2022-11-15T17:09:23;16.70;75.20
10121;DHT22;5100;45.176;5.714;2022-11-15T17:11:50;16.70;75.20
10121;DHT22;5100;45.176;5.714;2022-11-15T17:14:19;16.70;75.40
10121;DHT22;5100;45.176;5.714;2022-11-15T17:16:46;16.70;75.40
10121;DHT22;5100;45.176;5.714;2022-11-15T17:19:17;16.70;75.40
10121;DHT22;5100;45.176;5.714;2022-11-15T17:21:44;16.70;75.00
10121;DHT22;5100;45.176;5.714;2022-11-15T17:24:10;16.80;75.10
10121;DHT22;5100;45.176;5.714;2022-11-15T17:26:37;16.70;75.20
10121;DHT22;5100;45.176;5.714;2022-11-15T17:29:04;16.80;75.00
10121;DHT22;5100;45.176;5.714;2022-11-15T17:31:34;16.70;75.00
10121;DHT22;5100;45.176;5.714;2022-11-15T17:34:02;16.70;75.00
10121;DHT22;5100;45.176;5.714;2022-11-15T17:36:28;16.70;75.00
10121;DHT22;5100;45.176;5.714;2022-11-15T17:38:54;16.70;75.00
10121;DHT22;5100;45.176;5.714;2022-11-15T17:41:20;16.80;75.10
10121;DHT22;5100;45.176;5.714;2022-11-15T17:43:47;16.70;75.00
10121;DHT22;5100;45.176;5.714;2022-11-15T17:46:17;16.80;75.00
10121;DHT22;5100;45.176;5.714;2022-11-15T17:48:45;16.80;75.10
10121;DHT22;5100;45.176;5.714;2022-11-15T17:51:13;16.80;75.20
10121;DHT22;5100;45.176;5.714;2022-11-15T17:53:41;16.80;75.20
10121;DHT22;5100;45.176;5.714;2022-11-15T17:56:12;16.80;75.20
10121;DHT22;5100;45.176;5.714;2022-11-15T17:58:39;16.80;75.10
10121;DHT22;5100;45.176;5.714;2022-11-15T18:03:52;16.80;75.60
10121;DHT22;5100;45.176;5.714;2022-11-15T18:06:20;16.80;75.80
10121;DHT22;5100;45.176;5.714;2022-11-15T18:08:47;16.80;75.80
10121;DHT22;5100;45.176;5.714;2022-11-15T18:11:17;16.80;75.50
10121;DHT22;5100;45.176;5.714;2022-11-15T18:13:44;16.80;75.40
10121;DHT22;5100;45.176;5.714;2022-11-15T18:16:14;16.80;75.60
10121;DHT22;5100;45.176;5.714;2022-11-15T18:18:42;16.80;75.60
10121;DHT22;5100;45.176;5.714;2022-11-15T18:21:13;16.80;75.60
10121;DHT22;5100;45.176;5.714;2022-11-15T18:23:41;16.80;75.80
10121;DHT22;5100;45.176;5.714;2022-11-15T18:26:10;16.80;75.80
10121;DHT22;5100;45.176;5.714;2022-11-15T18:28:41;16.80;76.00
10121;DHT22;5100;45.176;5.714;2022-11-15T18:33:47;16.80;76.60
10121;DHT22;5100;45.176;5.714;2022-11-15T18:36:18;16.80;76.40
10121;DHT22;5100;45.176;5.714;2022-11-15T18:38:44;16.80;76.60
10121;DHT22;5100;45.176;5.714;2022-11-15T18:41:13;16.80;76.30
10121;DHT22;5100;45.176;5.714;2022-11-15T18:43:40;16.80;76.60
10121;DHT22;5100;45.176;5.714;2022-11-15T18:46:12;16.70;76.70
10121;DHT22;5100;45.176;5.714;2022-11-15T18:48:39;16.70;76.80
10121;DHT22;5100;45.176;5.714;2022-11-15T18:51:13;16.70;77.10
10121;DHT22;5100;45.176;5.714;2022-11-15T18:53:42;16.70;77.50